METAR Data
IDs: Format: Raw Decoded Include TAF

Data at: 1033 UTC 26 Sep 2018

KAXN 260953Z AUTO 29010KT 10SM OVC006 08/05 A3005 RMK AO2 SLP183 T00780050
KAXN 260949Z AUTO 29010KT 10SM OVC006 08/06 A3005 RMK AO2
KAXN 260853Z AUTO 26007KT 10SM OVC005 08/06 A3004 RMK AO2 SLP180 T00830056 51002
KAXN 260844Z AUTO 27009KT 10SM OVC005 08/06 A3004 RMK AO2 CIG 004V009 T00830061
KAXN 260753Z AUTO 28008KT 6SM BR OVC003 09/07 A3004 RMK AO2 SLP180 T00890067
KAXN 260728Z AUTO 28010KT 7SM BKN004 08/06 A3004 RMK AO2 T00830061
KAXN 260719Z AUTO 28008KT 9SM SCT004 08/06 A3004 RMK AO2 T00830056
KAXN 260653Z AUTO 27005KT 10SM CLR 07/05 A3004 RMK AO2 SLP181 T00720050
KAXN 260553Z AUTO 30005KT 9SM CLR 08/06 A3003 RMK AO2 SLP177 T00780056 10117 20072 401390072 51005
KAXN 260453Z AUTO 29005KT 10SM CLR 08/06 A3003 RMK AO2 SLP177 T00830056
KAXN 260353Z AUTO 29006KT 10SM BKN090 09/06 A3003 RMK AO2 SLP176 T00940061
KAXN 260253Z AUTO 28009KT 10SM FEW050 BKN095 10/06 A3002 RMK AO2 SLP172 T01000056 51012
KAXN 260153Z AUTO 25006KT 10SM CLR 08/04 A3001 RMK AO2 SLP170 T00830039
KAXN 260053Z AUTO 26005KT 10SM CLR 09/04 A3000 RMK AO2 SLP165 T00940039
KAXN 252353Z AUTO 30006KT 10SM FEW037 12/05 A2998 RMK AO2 SLP158 60003 T01170050 10139 20094 55001
KAXN 252253Z AUTO 30010G20KT 10SM CLR 13/04 A2998 RMK AO2 SLP158 T01280039
KAXN 252204Z AUTO 29012KT 10SM SCT030 SCT037 12/04 A2997 RMK AO2 T01220044
KAXN 252153Z AUTO 28014G22KT 10SM BKN029 BKN037 12/04 A2997 RMK AO2 SLP155 T01220044
KAXN 252142Z AUTO 28010G19KT 10SM BKN027 BKN034 13/06 A2997 RMK AO2 T01330056
KAXN 252053Z AUTO 28012KT 10SM FEW024 12/06 A2998 RMK AO2 SLP159 60003 T01170056 58009
KAXN 251953Z AUTO 27006KT 10SM OVC065 11/07 A2999 RMK AO2 RAE21 SLP164 P0001 T01060067
KAXN 251917Z AUTO 28008KT 10SM -RA FEW012 BKN049 OVC060 10/06 A3001 RMK AO2 P0001 T01000061
KAXN 251906Z AUTO 29010G20KT 8SM -RA FEW012 BKN026 OVC055 09/06 A3001 RMK AO2 P0001 T00940056
KAXN 251853Z AUTO 29011KT 7SM -RA FEW012 BKN033 OVC055 10/07 A3001 RMK AO2 RAB08 SLP170 P0002 T01000067
KAXN 251753Z AUTO 30014KT 10SM FEW017 BKN040 OVC050 12/07 A3001 RMK AO2 SLP168 T01170067 10122 20094 50005
KAXN 251705Z AUTO 28010KT 10SM SCT015 OVC060 12/07 A3001 RMK AO2 T01220072
KAXN 251653Z AUTO 27012KT 10SM BKN015 BKN032 OVC070 12/07 A3001 RMK AO2 SLP168 T01170072
KAXN 251648Z AUTO 28010KT 10SM BKN013 BKN021 OVC070 12/07 A3001 RMK AO2
KAXN 251640Z AUTO 29009KT 10SM SCT013 BKN032 OVC070 12/07 A3000 RMK AO2 T01170072
KAXN 251616Z AUTO 27007KT 10SM BKN014 BKN021 OVC095 12/07 A3000 RMK AO2 T01170067
KAXN 251553Z AUTO 24006KT 10SM BKN016 OVC095 11/06 A3000 RMK AO2 SLP166 T01110061
KAXN 251453Z AUTO 00000KT 10SM OVC019 11/06 A2999 RMK AO2 SLP163 T01060056 51011
KAXN 251353Z AUTO 27004KT 10SM OVC024 10/06 A2999 RMK AO2 SLP163 T01000061
KAXN 251336Z AUTO 32003KT 10SM BKN023 OVC120 10/06 A2999 RMK AO2 T01000056
KAXN 251311Z AUTO 35005KT 10SM SCT027 BKN120 10/06 A2998 RMK AO2 T01000056
KAXN 251253Z AUTO 35003KT 10SM OVC026 10/06 A2998 RMK AO2 SLP158 T01000056
KAXN 251217Z AUTO 03005KT 10SM BKN025 OVC100 10/05 A2996 RMK AO2 T01000050
KAXN 251153Z AUTO 02005KT 10SM BKN100 10/05 A2996 RMK AO2 SLP152 70016 T01000050 10106 20094 56002
KAXN 251134Z AUTO 05008KT 10SM FEW016 FEW025 09/05 A2996 RMK AO2 T00940050
KAXN 251117Z AUTO 05006KT 10SM FEW014 BKN023 BKN030 10/06 A2996 RMK AO2 T01000056
KAXN 251109Z AUTO 04007KT 10SM FEW014 SCT023 OVC031 10/06 A2996 RMK AO2 T01000056
KAXN 251053Z AUTO 01008KT 10SM BKN023 OVC029 10/06 A2996 RMK AO2 SLP152 T01000056
KAXN 251011Z AUTO 01008KT 10SM BKN026 10/06 A2995 RMK AO2 T01000056
KAXN 250953Z AUTO 02009KT 10SM FEW015 SCT022 10/06 A2996 RMK AO2 SLP150 T01000056
KAXN 250853Z AUTO 33006KT 10SM OVC020 10/07 A2997 RMK AO2 SLP154 T01000067 53008
KAXN 250832Z AUTO 33005KT 10SM BKN020 10/07 A2996 RMK AO2 T01000067
KAXN 250806Z AUTO 33007KT 10SM SCT010 09/06 A2996 RMK AO2 T00940061
KAXN 250753Z AUTO 32005KT 10SM BKN010 09/06 A2996 RMK AO2 SLP151 T00940061
KAXN 250653Z AUTO 32009KT 10SM OVC012 10/07 A2995 RMK AO2 SLP147 T01000067
KAXN 250619Z AUTO 33009KT 10SM OVC014 11/07 A2994 RMK AO2 T01060072
KAXN 250553Z AUTO 33007KT 10SM SCT009 OVC017 11/07 A2994 RMK AO2 SLP142 T01060072 10117 20100 401940100 53003
KAXN 250533Z AUTO 33009KT 10SM SCT007 SCT011 OVC017 10/07 A2994 RMK AO2 T01000072
KAXN 250453Z AUTO 34008KT 10SM OVC007 11/07 A2993 RMK AO2 SLP138 T01060072
KAXN 250353Z AUTO 32009KT 10SM OVC008 11/08 A2994 RMK AO2 SLP140 T01060078
KAXN 250253Z AUTO 31010KT 10SM OVC006 11/08 A2993 RMK AO2 SLP138 T01110083 51019
KAXN 250205Z AUTO 32007KT 10SM OVC006 11/08 A2991 RMK AO2 T01110083
KAXN 250153Z AUTO 30010KT 10SM OVC005 11/08 A2992 RMK AO2 CIG 005V009 SLP133 T01110083
KAXN 250130Z AUTO 31009KT 10SM OVC005 11/09 A2991 RMK AO2 T01110089
KAXN 250053Z AUTO 31010KT 10SM OVC006 11/08 A2990 RMK AO2 CIG 006V009 SLP129 T01110083
KAXN 250039Z AUTO 31009KT 10SM OVC007 11/09 A2990 RMK AO2 CIG 005V010 T01110089
KAXN 242353Z AUTO 32009KT 10SM OVC005 12/09 A2987 RMK AO2 SLP118 60016 T01170094 10172 20117 53002
KAXN 242253Z AUTO 31012KT 10SM OVC004 12/10 A2985 RMK AO2 RAE42 SLP109 P0008 T01220100
KAXN 242237Z AUTO 31013G17KT 8SM -RA BKN004 BKN060 OVC090 13/11 A2984 RMK AO2 P0008 T01280106